createdAt,value
2024-05-09T00:00:39.896Z,11.73
2024-05-09T00:03:08.989Z,12.02
2024-05-09T00:05:37.400Z,12.65
2024-05-09T00:08:04.681Z,11.40
2024-05-09T00:10:36.535Z,11.32
2024-05-09T00:13:06.158Z,11.20
2024-05-09T00:15:33.955Z,11.02
2024-05-09T00:18:01.742Z,10.80
2024-05-09T00:20:36.791Z,11.50
2024-05-09T00:23:07.560Z,11.15
2024-05-09T00:25:35.286Z,10.05
2024-05-09T00:28:02.664Z,9.82
2024-05-09T00:30:34.453Z,10.05
2024-05-09T00:33:08.437Z,10.18
2024-05-09T00:35:36.842Z,10.25
2024-05-09T00:38:04.494Z,9.05
2024-05-09T00:40:39.984Z,10.10
2024-05-09T00:43:09.976Z,9.63
2024-05-09T00:45:36.980Z,9.30
2024-05-09T00:48:07.475Z,10.52
2024-05-09T00:50:38.032Z,10.43
2024-05-09T00:53:11.383Z,9.88
2024-05-09T00:55:39.187Z,8.88
2024-05-09T00:58:09.101Z,10.23
2024-05-09T01:00:39.733Z,9.05
2024-05-09T01:03:10.635Z,9.18
2024-05-09T01:05:39.904Z,9.82
2024-05-09T01:08:08.053Z,10.07
2024-05-09T01:10:36.296Z,9.20
2024-05-09T01:13:04.415Z,10.48
2024-05-09T01:15:31.422Z,9.50
2024-05-09T01:18:00.158Z,8.93
2024-05-09T01:20:36.812Z,9.88
2024-05-09T01:23:09.644Z,10.57
2024-05-09T01:25:37.143Z,9.63
2024-05-09T01:28:04.157Z,9.93
2024-05-09T01:30:35.401Z,9.18
2024-05-09T01:33:09.628Z,9.52
2024-05-09T01:35:38.961Z,9.27
2024-05-09T01:38:06.618Z,9.48
2024-05-09T01:40:38.534Z,10.27
2024-05-09T01:43:11.210Z,9.13
2024-05-09T01:45:39.711Z,10.45
2024-05-09T01:48:08.030Z,9.70
2024-05-09T01:50:39.631Z,9.57
2024-05-09T01:53:14.908Z,10.52
2024-05-09T01:55:42.468Z,9.98
2024-05-09T01:58:09.755Z,10.20
2024-05-09T02:00:40.869Z,10.35
2024-05-09T02:03:15.299Z,10.05
2024-05-09T02:05:49.718Z,10.07
2024-05-09T02:08:21.103Z,11.13
2024-05-09T02:10:49.494Z,9.52
2024-05-09T02:13:16.927Z,9.25
2024-05-09T02:15:44.321Z,10.65
2024-05-09T02:18:11.708Z,10.40
2024-05-09T02:20:41.154Z,10.13
2024-05-09T02:25:36.010Z,9.20
2024-05-09T02:28:03.162Z,10.25
2024-05-09T02:30:38.650Z,10.10
2024-05-09T02:33:10.170Z,10.57
2024-05-09T02:35:38.815Z,9.77
2024-05-09T02:38:05.767Z,10.75
2024-05-09T02:40:37.015Z,11.07
2024-05-09T02:43:06.822Z,10.52
2024-05-09T02:45:33.770Z,11.82
2024-05-09T02:48:01.467Z,10.35
2024-05-09T02:50:37.014Z,10.05
2024-05-09T02:53:10.791Z,11.23
2024-05-09T02:55:38.848Z,10.35
2024-05-09T02:58:09.095Z,10.80
2024-05-09T03:00:39.939Z,11.50
2024-05-09T03:03:10.777Z,11.20
2024-05-09T03:05:40.074Z,11.18
2024-05-09T03:08:07.337Z,11.57
2024-05-09T03:10:36.761Z,11.90
2024-05-09T03:13:09.153Z,11.02
2024-05-09T03:15:36.325Z,11.52
2024-05-09T03:18:04.915Z,11.23
2024-05-09T03:20:34.974Z,12.10
2024-05-09T03:23:03.864Z,11.25
2024-05-09T03:25:31.052Z,11.73
2024-05-09T03:27:57.788Z,10.82
2024-05-09T03:30:38.217Z,10.90
2024-05-09T03:33:15.280Z,11.50
2024-05-09T03:35:45.871Z,10.70
2024-05-09T03:38:12.731Z,10.65
2024-05-09T03:40:47.049Z,10.05
2024-05-09T03:43:14.528Z,10.68
2024-05-09T03:45:42.667Z,11.05
2024-05-09T03:48:09.651Z,12.13
2024-05-09T03:50:37.319Z,10.57
2024-05-09T03:53:05.229Z,10.50
2024-05-09T03:55:32.313Z,9.95
2024-05-09T03:57:59.376Z,10.80
2024-05-09T04:00:34.625Z,10.30
2024-05-09T04:03:10.914Z,10.63
2024-05-09T04:05:43.876Z,10.48
2024-05-09T04:08:12.691Z,11.27
2024-05-09T04:10:41.495Z,10.95
2024-05-09T04:13:09.317Z,10.48
2024-05-09T04:15:36.024Z,12.07
2024-05-09T04:18:03.182Z,11.48
2024-05-09T04:20:37.581Z,11.50
2024-05-09T04:23:08.755Z,11.27
2024-05-09T04:28:03.693Z,11.07
2024-05-09T04:30:37.136Z,11.27
2024-05-09T04:33:08.626Z,11.88
2024-05-09T04:35:37.749Z,11.68
2024-05-09T04:38:05.560Z,11.93
2024-05-09T04:40:35.676Z,11.32
2024-05-09T04:43:13.579Z,11.85
2024-05-09T04:45:40.691Z,12.48
2024-05-09T04:48:08.108Z,12.23
2024-05-09T04:50:38.318Z,12.38
2024-05-09T04:53:08.362Z,13.45
2024-05-09T04:55:36.601Z,13.25
2024-05-09T04:58:03.422Z,12.63
2024-05-09T05:00:35.982Z,12.60
2024-05-09T05:03:08.473Z,13.73
2024-05-09T05:05:41.142Z,13.85
2024-05-09T05:08:15.377Z,12.57
2024-05-09T05:10:43.408Z,13.38
2024-05-09T05:13:20.214Z,13.40
2024-05-09T05:15:58.402Z,12.60
2024-05-09T05:18:28.676Z,13.90
2024-05-09T05:20:56.174Z,13.80
2024-05-09T05:23:23.938Z,14.00
2024-05-09T05:25:54.415Z,14.02
2024-05-09T05:28:21.712Z,13.18
2024-05-09T05:30:48.529Z,14.45
2024-05-09T05:33:18.735Z,13.70
2024-05-09T05:35:46.059Z,14.73
2024-05-09T05:38:12.980Z,14.23
2024-05-09T05:40:40.769Z,14.32
2024-05-09T05:43:10.443Z,13.35
2024-05-09T05:45:37.883Z,13.35
2024-05-09T05:48:06.366Z,13.98
2024-05-09T05:50:36.920Z,14.52
2024-05-09T05:53:09.336Z,13.40
2024-05-09T05:55:37.487Z,12.75
2024-05-09T05:58:04.447Z,13.57
2024-05-09T06:00:38.268Z,13.48
2024-05-09T06:03:10.634Z,14.20
2024-05-09T06:05:43.190Z,13.27
2024-05-09T06:08:10.370Z,13.82
2024-05-09T06:10:39.913Z,12.82
2024-05-09T06:13:12.088Z,14.20
2024-05-09T06:15:40.290Z,14.25
2024-05-09T06:18:08.742Z,13.70
2024-05-09T06:20:37.975Z,12.60
2024-05-09T06:23:06.882Z,13.52
2024-05-09T06:25:36.932Z,14.40
2024-05-09T06:28:04.247Z,13.45
2024-05-09T06:30:38.726Z,13.40
2024-05-09T06:33:11.276Z,14.02
2024-05-09T06:35:40.099Z,12.85
2024-05-09T06:38:09.453Z,13.85
2024-05-09T06:40:39.935Z,13.65
2024-05-09T06:43:12.863Z,12.50
2024-05-09T06:45:40.003Z,12.75
2024-05-09T06:48:08.916Z,12.60
2024-05-09T06:50:38.243Z,13.02
2024-05-09T06:53:06.855Z,12.35
2024-05-09T06:55:33.626Z,13.77
2024-05-09T06:58:00.540Z,12.75
2024-05-09T07:00:35.304Z,12.95
2024-05-09T07:03:18.156Z,13.13
2024-05-09T07:05:47.933Z,13.77
2024-05-09T07:08:16.219Z,13.73
2024-05-09T07:10:43.309Z,13.50
2024-05-09T07:13:13.912Z,12.52
2024-05-09T07:15:41.910Z,13.35
2024-05-09T07:18:15.524Z,12.25
2024-05-09T07:20:43.076Z,12.05
2024-05-09T07:23:10.814Z,11.77
2024-05-09T07:25:38.857Z,12.60
2024-05-09T07:28:09.745Z,11.88
2024-05-09T07:30:36.439Z,12.43
2024-05-09T07:33:03.845Z,11.55
2024-05-09T07:35:31.138Z,12.15
2024-05-09T07:37:58.461Z,12.00
2024-05-09T07:40:32.957Z,11.00
2024-05-09T07:43:13.112Z,10.45
2024-05-09T07:45:49.574Z,10.18
2024-05-09T07:52:38.482Z,11.57
2024-05-09T07:53:46.424Z,10.98
2024-05-09T07:56:16.831Z,10.77
2024-05-09T07:58:45.629Z,11.73
2024-05-09T08:01:12.574Z,11.32
2024-05-09T08:03:39.610Z,11.68
2024-05-09T08:06:06.402Z,12.88
2024-05-09T08:08:33.160Z,11.30
2024-05-09T08:10:59.928Z,11.40
2024-05-09T08:13:26.642Z,11.45
2024-05-09T08:15:53.419Z,11.95
2024-05-09T08:18:20.295Z,10.75
2024-05-09T08:20:48.929Z,12.88
2024-05-09T08:23:15.894Z,11.03
2024-05-09T08:25:42.613Z,10.55
2024-05-09T08:28:11.431Z,11.25
2024-05-09T08:30:38.748Z,10.55
2024-05-09T08:33:06.961Z,9.90
2024-05-09T08:35:35.156Z,8.85
2024-05-09T08:38:06.645Z,8.77
2024-05-09T08:40:36.381Z,8.50
2024-05-09T08:43:10.847Z,8.73
2024-05-09T08:45:43.153Z,8.30
2024-05-09T08:48:12.864Z,8.25
2024-05-09T08:50:43.104Z,8.30
2024-05-09T08:53:10.127Z,8.23
2024-05-09T08:55:41.564Z,7.57
2024-05-09T08:58:17.920Z,8.75
2024-05-09T09:00:46.394Z,7.13
2024-05-09T09:03:19.543Z,7.45
2024-05-09T09:05:54.806Z,8.32
2024-05-09T09:08:22.587Z,7.93
2024-05-09T09:10:52.886Z,7.88
2024-05-09T09:13:20.154Z,8.43
2024-05-09T09:15:50.558Z,7.45
2024-05-09T09:18:18.461Z,7.05
2024-05-09T09:20:45.624Z,7.85
2024-05-09T09:23:12.475Z,8.25
2024-05-09T09:25:40.615Z,7.88
2024-05-09T09:28:08.294Z,6.60
2024-05-09T09:30:38.905Z,6.78
2024-05-09T09:33:06.823Z,7.07
2024-05-09T09:35:36.100Z,7.95
2024-05-09T09:38:04.494Z,7.80
2024-05-09T09:40:37.574Z,7.03
2024-05-09T09:43:19.237Z,8.00
2024-05-09T09:45:50.057Z,7.63
2024-05-09T09:48:17.375Z,7.03
2024-05-09T09:50:45.305Z,7.75
2024-05-09T09:53:12.816Z,7.53
2024-05-09T09:55:40.284Z,8.45
2024-05-09T09:58:09.699Z,7.18
2024-05-09T10:00:39.141Z,7.00
2024-05-09T10:03:05.978Z,6.82
2024-05-09T10:05:33.985Z,7.40
2024-05-09T10:08:06.556Z,7.50
2024-05-09T10:10:34.920Z,7.45
2024-05-09T10:13:06.617Z,6.10
2024-05-09T10:15:48.460Z,6.32
2024-05-09T10:18:15.695Z,5.03
2024-05-09T10:20:46.563Z,6.20
2024-05-09T10:23:29.912Z,6.10
2024-05-09T10:25:59.597Z,5.82
2024-05-09T10:28:33.481Z,6.60
2024-05-09T10:31:18.661Z,6.90
2024-05-09T10:33:51.919Z,8.20
2024-05-09T10:36:24.355Z,6.78
2024-05-09T10:38:53.299Z,8.32
2024-05-09T10:41:21.366Z,6.70
2024-05-09T10:43:49.253Z,7.93
2024-05-09T10:46:16.717Z,7.82
2024-05-09T10:48:44.300Z,7.68
2024-05-09T10:51:11.714Z,8.52
2024-05-09T10:53:46.653Z,8.10
2024-05-09T10:56:14.567Z,7.65
2024-05-09T10:58:41.515Z,7.90
2024-05-09T11:01:09.807Z,8.57
2024-05-09T11:03:37.924Z,7.35
2024-05-09T11:06:06.336Z,7.45
2024-05-09T11:08:34.832Z,8.55
2024-05-09T11:11:06.508Z,9.45
2024-05-09T11:13:35.130Z,8.10
2024-05-09T11:16:02.954Z,7.70
2024-05-09T11:18:33.455Z,7.57
2024-05-09T11:21:03.214Z,7.82
2024-05-09T11:23:30.693Z,7.22
2024-05-09T11:25:58.804Z,7.82
2024-05-09T11:28:28.521Z,8.40
2024-05-09T11:31:08.564Z,7.22
2024-05-09T11:33:38.771Z,6.65
2024-05-09T11:36:06.710Z,7.22
2024-05-09T11:38:33.783Z,7.72
2024-05-09T11:41:00.591Z,7.03
2024-05-09T11:43:27.466Z,8.10
2024-05-09T11:45:55.040Z,7.22
2024-05-09T11:48:21.886Z,7.05
2024-05-09T11:50:48.773Z,7.70
2024-05-09T11:53:15.503Z,6.82
2024-05-09T11:55:42.196Z,6.60
2024-05-09T11:58:09.319Z,6.55
2024-05-09T12:00:37.503Z,6.68
2024-05-09T12:03:05.887Z,6.95
2024-05-09T12:05:34.143Z,5.90
2024-05-09T12:08:01.704Z,6.23
2024-05-09T12:10:33.410Z,6.32
2024-05-09T12:13:04.183Z,5.85
2024-05-09T12:15:32.713Z,6.00
2024-05-09T12:18:02.752Z,6.07
2024-05-09T12:20:36.744Z,6.32
2024-05-09T12:23:06.632Z,6.40
2024-05-09T12:25:33.610Z,5.95
2024-05-09T12:28:00.779Z,6.28
2024-05-09T12:30:36.113Z,6.07
2024-05-09T12:33:08.050Z,6.00
2024-05-09T12:35:35.020Z,6.38
2024-05-09T12:38:02.128Z,6.22
2024-05-09T12:40:35.988Z,5.15
2024-05-09T12:43:07.785Z,4.78
2024-05-09T12:45:35.527Z,5.32
2024-05-09T12:48:08.314Z,4.60
2024-05-09T12:50:35.770Z,5.60
2024-05-09T12:53:05.216Z,4.93
2024-05-09T12:55:40.973Z,5.78
2024-05-09T12:58:16.373Z,6.22
2024-05-09T13:00:44.239Z,5.55
2024-05-09T13:03:11.295Z,5.45
2024-05-09T13:05:38.354Z,5.65
2024-05-09T13:08:05.515Z,5.97
2024-05-09T13:10:33.432Z,6.03
2024-05-09T13:13:01.885Z,5.95
2024-05-09T13:15:54.321Z,5.80
2024-05-09T13:18:21.194Z,6.38
2024-05-09T13:20:47.984Z,4.93
2024-05-09T13:23:14.682Z,5.85
2024-05-09T13:25:41.386Z,5.93
2024-05-09T13:28:08.370Z,5.60
2024-05-09T13:30:40.287Z,5.53
2024-05-09T13:33:13.266Z,5.93
2024-05-09T13:35:46.780Z,4.78
2024-05-09T13:38:16.855Z,5.15
2024-05-09T13:40:43.781Z,5.90
2024-05-09T13:43:10.696Z,5.25
2024-05-09T13:45:37.552Z,5.28
2024-05-09T13:48:06.690Z,5.32
2024-05-09T13:50:36.187Z,5.72
2024-05-09T13:53:08.776Z,6.78
2024-05-09T13:55:39.485Z,7.50
2024-05-09T13:58:07.176Z,5.20
2024-05-09T14:00:44.145Z,5.03
2024-05-09T14:03:19.460Z,7.20
2024-05-09T14:05:47.843Z,4.40
2024-05-09T14:08:15.749Z,3.95
2024-05-09T14:10:45.066Z,4.75
2024-05-09T14:15:39.451Z,3.92
2024-05-09T14:18:10.189Z,4.38
2024-05-09T14:20:39.149Z,4.40
2024-05-09T14:23:05.904Z,3.83
2024-05-09T14:25:36.617Z,3.63
2024-05-09T14:28:06.215Z,3.47
2024-05-09T14:30:37.257Z,3.70
2024-05-09T14:33:06.667Z,4.43
2024-05-09T14:38:01.465Z,3.55
2024-05-09T14:40:38.818Z,3.70
2024-05-09T14:43:11.039Z,4.20
2024-05-09T14:45:37.939Z,3.80
2024-05-09T14:48:05.514Z,3.67
2024-05-09T14:50:37.013Z,3.80
2024-05-09T14:53:07.613Z,4.32
2024-05-09T14:55:37.389Z,3.63
2024-05-09T14:58:09.610Z,3.55
2024-05-09T15:00:46.015Z,4.05
2024-05-09T15:03:16.911Z,4.05
2024-05-09T15:05:44.952Z,4.28
2024-05-09T15:08:11.727Z,3.53
2024-05-09T15:10:39.072Z,4.75
2024-05-09T15:13:07.906Z,4.32
2024-05-09T15:15:36.984Z,3.85
2024-05-09T15:18:05.525Z,3.83
2024-05-09T15:20:36.164Z,4.38
2024-05-09T15:23:06.724Z,5.32
2024-05-09T15:25:35.116Z,5.80
2024-05-09T15:28:02.321Z,5.13
2024-05-09T15:30:32.294Z,5.28
2024-05-09T15:33:03.260Z,5.15
2024-05-09T15:35:30.260Z,5.43
2024-05-09T15:37:57.026Z,6.00
2024-05-09T15:40:34.779Z,5.28
2024-05-09T15:43:06.718Z,5.55
2024-05-09T15:45:34.255Z,4.93
2024-05-09T15:48:02.203Z,5.30
2024-05-09T15:50:36.738Z,4.82
2024-05-09T15:53:08.163Z,4.85
2024-05-09T15:55:35.872Z,4.47
2024-05-09T15:58:04.155Z,4.10
2024-05-09T16:00:38.923Z,4.60
2024-05-09T16:03:10.387Z,4.43
2024-05-09T16:05:38.071Z,5.10
2024-05-09T16:08:05.985Z,3.95
2024-05-09T16:10:34.466Z,4.15
2024-05-09T16:17:58.250Z,3.92
2024-05-09T16:20:34.645Z,4.53
2024-05-09T16:23:07.082Z,4.60
2024-05-09T16:25:34.071Z,4.35
2024-05-09T16:28:01.793Z,4.20
2024-05-09T16:30:34.548Z,4.88
2024-05-09T16:33:04.423Z,4.07
2024-05-09T16:37:58.775Z,4.70
2024-05-09T16:40:34.430Z,4.50
2024-05-09T16:43:06.169Z,3.97
2024-05-09T16:45:33.589Z,4.60
2024-05-09T16:48:01.240Z,4.75
2024-05-09T16:50:32.728Z,4.78
2024-05-09T16:53:02.263Z,4.22
2024-05-09T16:55:29.315Z,4.70
2024-05-09T16:57:57.250Z,4.60
2024-05-09T17:00:35.257Z,4.85
2024-05-09T17:03:08.832Z,6.00
2024-05-09T17:05:36.497Z,7.63
2024-05-09T17:08:04.099Z,4.88
2024-05-09T17:10:33.870Z,4.82
2024-05-09T17:13:07.199Z,4.53
2024-05-09T17:15:36.660Z,4.80
2024-05-09T17:18:05.151Z,5.10
2024-05-09T17:20:35.297Z,5.70
2024-05-09T17:23:06.097Z,5.50
2024-05-09T17:25:33.944Z,5.93
2024-05-09T17:28:06.824Z,5.57
2024-05-09T17:30:37.526Z,5.80
2024-05-09T17:33:07.647Z,5.43
2024-05-09T17:35:35.978Z,5.95
2024-05-09T17:38:05.425Z,5.50
2024-05-09T17:40:35.862Z,5.40
2024-05-09T17:43:05.714Z,6.03
2024-05-09T17:45:33.599Z,5.45
2024-05-09T17:48:01.530Z,6.38
2024-05-09T17:50:35.125Z,5.47
2024-05-09T17:53:04.556Z,5.85
2024-05-09T17:55:31.554Z,5.80
2024-05-09T17:57:58.571Z,4.88
2024-05-09T18:00:36.374Z,5.13
2024-05-09T18:03:07.566Z,4.47
2024-05-09T18:05:38.477Z,4.68
2024-05-09T18:08:08.460Z,4.93
2024-05-09T18:10:38.627Z,5.50
2024-05-09T18:13:11.518Z,5.13
2024-05-09T18:15:39.395Z,5.70
2024-05-09T18:18:07.566Z,5.35
2024-05-09T18:20:42.082Z,5.60
2024-05-09T18:23:17.188Z,5.63
2024-05-09T18:25:45.735Z,5.60
2024-05-09T18:28:12.746Z,6.38
2024-05-09T18:30:40.373Z,6.03
2024-05-09T18:33:09.787Z,6.00
2024-05-09T18:35:37.043Z,5.30
2024-05-09T18:38:04.784Z,6.18
2024-05-09T18:40:35.618Z,6.05
2024-05-09T18:43:06.877Z,6.78
2024-05-09T18:45:35.762Z,6.78
2024-05-09T18:48:04.910Z,6.57
2024-05-09T18:50:36.178Z,6.75
2024-05-09T18:53:06.439Z,6.35
2024-05-09T18:55:33.565Z,5.10
2024-05-09T18:58:00.590Z,5.43
2024-05-09T19:00:34.352Z,6.50
2024-05-09T19:03:06.181Z,6.40
2024-05-09T19:05:35.563Z,6.40
2024-05-09T19:08:03.361Z,6.38
2024-05-09T19:10:34.350Z,6.47
2024-05-09T19:13:06.685Z,7.00
2024-05-09T19:15:38.011Z,6.32
2024-05-09T19:18:05.239Z,6.25
2024-05-09T19:20:34.914Z,6.68
2024-05-09T19:23:04.090Z,5.95
2024-05-09T19:25:31.055Z,5.90
2024-05-09T19:27:58.124Z,5.57
2024-05-09T19:30:34.878Z,6.10
2024-05-09T19:33:07.097Z,5.90
2024-05-09T19:35:34.078Z,6.93
2024-05-09T19:38:01.127Z,6.25
2024-05-09T19:40:32.100Z,6.03
2024-05-09T19:43:02.350Z,6.35
2024-05-09T19:45:29.777Z,5.90
2024-05-09T19:47:57.258Z,6.30
2024-05-09T19:50:32.425Z,5.80
2024-05-09T19:53:07.462Z,6.15
2024-05-09T19:55:35.084Z,5.85
2024-05-09T19:58:05.170Z,6.18
2024-05-09T20:00:39.867Z,6.20
2024-05-09T20:03:09.766Z,6.13
2024-05-09T20:05:37.731Z,5.80
2024-05-09T20:08:05.904Z,6.15
2024-05-09T20:10:35.183Z,6.07
2024-05-09T20:13:04.999Z,6.07
2024-05-09T20:15:34.810Z,6.90
2024-05-09T20:18:02.563Z,6.70
2024-05-09T20:20:37.277Z,6.63
2024-05-09T20:23:08.548Z,6.00
2024-05-09T20:25:35.322Z,5.70
2024-05-09T20:28:02.343Z,6.28
2024-05-09T20:30:32.703Z,5.88
2024-05-09T20:33:07.098Z,5.80
2024-05-09T20:35:35.531Z,5.63
2024-05-09T20:38:03.312Z,5.80
2024-05-09T20:40:35.071Z,5.20
2024-05-09T20:43:05.736Z,5.80
2024-05-09T20:45:33.220Z,6.38
2024-05-09T20:48:00.588Z,6.32
2024-05-09T20:50:36.624Z,6.43
2024-05-09T20:53:12.584Z,6.30
2024-05-09T20:55:40.849Z,5.95
2024-05-09T20:58:08.344Z,6.32
2024-05-09T21:00:40.021Z,6.57
2024-05-09T21:03:10.650Z,6.75
2024-05-09T21:05:38.070Z,7.00
2024-05-09T21:08:05.471Z,6.90
2024-05-09T21:10:33.842Z,7.45
2024-05-09T21:13:02.885Z,6.35
2024-05-09T21:15:30.461Z,6.63
2024-05-09T21:17:57.422Z,7.22
2024-05-09T21:20:30.937Z,6.38
2024-05-09T21:22:59.200Z,7.70
2024-05-09T21:25:26.062Z,7.47
2024-05-09T21:27:53.189Z,7.00
2024-05-09T21:30:31.764Z,7.40
2024-05-09T21:33:08.305Z,7.28
2024-05-09T21:35:35.515Z,7.27
2024-05-09T21:38:02.260Z,6.97
2024-05-09T21:40:34.294Z,8.00
2024-05-09T21:43:03.997Z,7.70
2024-05-09T21:45:31.022Z,8.35
2024-05-09T21:47:57.992Z,8.10
2024-05-09T21:50:32.269Z,8.25
2024-05-09T21:53:06.343Z,8.30
2024-05-09T21:55:33.447Z,7.55
2024-05-09T21:58:00.434Z,8.43
2024-05-09T22:00:34.755Z,7.93
2024-05-09T22:03:05.288Z,8.40
2024-05-09T22:05:32.738Z,8.88
2024-05-09T22:07:59.801Z,9.50
2024-05-09T22:10:32.849Z,9.82
2024-05-09T22:13:02.336Z,9.43
2024-05-09T22:15:29.180Z,9.95
2024-05-09T22:17:57.547Z,8.20
2024-05-09T22:20:34.219Z,9.67
2024-05-09T22:23:04.965Z,9.85
2024-05-09T22:25:32.574Z,9.50
2024-05-09T22:28:00.943Z,9.40
2024-05-09T22:30:35.623Z,10.15
2024-05-09T22:33:07.781Z,10.45
2024-05-09T22:35:34.961Z,10.73
2024-05-09T22:38:05.350Z,10.27
2024-05-09T22:40:42.387Z,11.88
2024-05-09T22:43:17.408Z,11.02
2024-05-09T22:45:44.577Z,11.77
2024-05-09T22:48:11.640Z,11.45
2024-05-09T22:50:38.478Z,12.07
2024-05-09T22:53:05.571Z,11.20
2024-05-09T22:55:32.431Z,10.85
2024-05-09T22:57:59.556Z,11.07
2024-05-09T23:00:31.424Z,12.07
2024-05-09T23:03:03.080Z,12.43
2024-05-09T23:05:31.904Z,11.43
2024-05-09T23:07:58.935Z,10.85
2024-05-09T23:10:32.334Z,11.40
2024-05-09T23:13:03.772Z,15.20
2024-05-09T23:15:30.832Z,12.68
2024-05-09T23:17:58.406Z,12.23
2024-05-09T23:20:35.464Z,11.88
2024-05-09T23:25:32.580Z,12.02
2024-05-09T23:27:59.528Z,12.38
2024-05-09T23:30:36.135Z,12.32
2024-05-09T23:33:06.503Z,12.13
2024-05-09T23:35:33.424Z,11.38
2024-05-09T23:38:00.065Z,12.02
2024-05-09T23:40:36.332Z,11.52
2024-05-09T23:43:06.536Z,12.50
2024-05-09T23:45:33.566Z,12.93
2024-05-09T23:48:00.820Z,13.20
2024-05-09T23:50:34.419Z,13.82
2024-05-09T23:53:05.094Z,12.90
2024-05-09T23:55:32.481Z,13.63
2024-05-09T23:57:59.650Z,13.60
